createdAt,value
2018-12-16T00:01:56.222Z,98.90
2018-12-16T00:04:23.975Z,99.00
2018-12-16T00:06:51.828Z,99.00
2018-12-16T00:09:19.541Z,99.10
2018-12-16T00:11:47.313Z,99.00
2018-12-16T00:14:15.057Z,98.80
2018-12-16T00:16:42.826Z,98.90
2018-12-16T00:19:11.561Z,98.60
2018-12-16T00:21:39.468Z,98.80
2018-12-16T00:24:08.211Z,98.90
2018-12-16T00:26:47.780Z,98.80
2018-12-16T00:29:15.609Z,98.90
2018-12-16T00:31:43.305Z,99.10
2018-12-16T00:34:11.095Z,99.30
2018-12-16T00:36:38.880Z,99.30
2018-12-16T00:39:06.839Z,99.20
2018-12-16T00:41:34.725Z,99.00
2018-12-16T00:44:02.575Z,99.10
2018-12-16T00:46:30.274Z,99.10
2018-12-16T00:48:58.017Z,99.30
2018-12-16T00:51:25.819Z,99.20
2018-12-16T00:53:54.292Z,99.10
2018-12-16T00:56:21.989Z,99.10
2018-12-16T00:58:49.673Z,99.00
2018-12-16T01:01:17.444Z,98.90
2018-12-16T01:03:45.258Z,98.90
2018-12-16T01:06:12.960Z,99.00
2018-12-16T01:08:40.730Z,98.90
2018-12-16T01:11:08.569Z,98.90
2018-12-16T01:13:36.230Z,99.00
2018-12-16T01:16:04.094Z,99.40
2018-12-16T01:18:31.805Z,99.40
2018-12-16T01:20:59.603Z,99.40
2018-12-16T01:23:27.418Z,99.20
2018-12-16T01:25:56.044Z,99.30
2018-12-16T01:28:23.972Z,99.60
2018-12-16T01:30:51.685Z,99.70
2018-12-16T01:33:19.523Z,99.60
2018-12-16T01:35:47.301Z,99.30
2018-12-16T01:38:15.084Z,99.30
2018-12-16T01:40:42.906Z,99.20
2018-12-16T01:43:10.585Z,99.00
2018-12-16T01:45:38.398Z,99.00
2018-12-16T01:48:06.097Z,98.90
2018-12-16T01:50:33.974Z,99.10
2018-12-16T01:53:01.726Z,99.10
2018-12-16T01:55:29.543Z,99.30
2018-12-16T01:57:57.297Z,99.00
2018-12-16T02:00:25.115Z,99.30
2018-12-16T02:02:52.878Z,99.20
2018-12-16T02:05:20.771Z,99.20
2018-12-16T02:07:48.640Z,99.00
2018-12-16T02:10:16.430Z,98.90
2018-12-16T02:12:44.229Z,99.00
2018-12-16T02:15:12.053Z,98.90
2018-12-16T02:17:39.831Z,99.00
2018-12-16T02:20:07.621Z,99.40
2018-12-16T02:22:35.426Z,99.10
2018-12-16T02:25:05.155Z,99.10
2018-12-16T02:27:32.961Z,99.40
2018-12-16T02:30:00.772Z,99.70
2018-12-16T02:32:28.545Z,99.90
2018-12-16T02:34:56.224Z,99.90
2018-12-16T02:37:23.990Z,99.80
2018-12-16T02:39:51.735Z,99.80
2018-12-16T02:42:19.529Z,99.90
2018-12-16T02:44:47.303Z,99.90
2018-12-16T02:47:15.096Z,99.90
2018-12-16T02:49:42.847Z,99.80
2018-12-16T02:52:10.687Z,99.90
2018-12-16T02:54:39.346Z,99.70
2018-12-16T02:57:07.073Z,99.80
2018-12-16T02:59:34.900Z,99.90
2018-12-16T03:02:03.261Z,99.90
2018-12-16T03:04:31.002Z,99.90
2018-12-16T03:06:58.704Z,99.90
2018-12-16T03:09:26.441Z,99.90
2018-12-16T03:11:54.234Z,99.90
2018-12-16T03:14:21.998Z,99.90
2018-12-16T03:16:49.774Z,99.90
2018-12-16T03:19:17.833Z,99.90
2018-12-16T03:21:45.628Z,99.90
2018-12-16T03:24:13.364Z,99.90
2018-12-16T03:26:41.868Z,99.90
2018-12-16T03:29:09.640Z,99.90
2018-12-16T03:31:37.575Z,99.90
2018-12-16T03:34:05.382Z,99.90
2018-12-16T03:36:33.193Z,99.90
2018-12-16T03:39:00.940Z,99.90
2018-12-16T03:41:28.887Z,99.90
2018-12-16T03:43:56.669Z,99.90
2018-12-16T03:46:24.399Z,99.90
2018-12-16T03:48:52.170Z,99.90
2018-12-16T03:51:19.853Z,99.90
2018-12-16T03:53:47.632Z,99.90
2018-12-16T03:56:15.420Z,99.80
2018-12-16T04:01:47.649Z,99.60
2018-12-16T04:04:15.583Z,99.50
2018-12-16T04:06:43.507Z,99.60
2018-12-16T04:09:11.355Z,99.70
2018-12-16T04:11:39.700Z,99.40
2018-12-16T04:14:07.402Z,99.20
2018-12-16T04:16:35.155Z,99.10
2018-12-16T04:19:02.932Z,99.20
2018-12-16T04:21:32.332Z,99.00
2018-12-16T04:24:00.083Z,99.20
2018-12-16T04:26:27.788Z,99.10
2018-12-16T04:28:55.512Z,99.20
2018-12-16T04:31:23.959Z,99.20
2018-12-16T04:33:51.664Z,99.10
2018-12-16T04:36:19.458Z,99.10
2018-12-16T04:38:47.188Z,98.80
2018-12-16T04:41:14.930Z,99.30
2018-12-16T04:43:43.387Z,99.50
2018-12-16T04:46:11.111Z,99.60
2018-12-16T04:48:38.933Z,99.40
2018-12-16T04:51:06.780Z,98.90
2018-12-16T04:53:36.953Z,99.00
2018-12-16T04:56:05.446Z,98.90
2018-12-16T04:58:33.255Z,98.80
2018-12-16T05:01:01.081Z,98.60
2018-12-16T05:03:28.945Z,98.60
2018-12-16T05:05:56.673Z,98.50
2018-12-16T05:08:24.391Z,98.70
2018-12-16T05:10:52.202Z,99.20
2018-12-16T05:13:22.103Z,99.50
2018-12-16T05:15:49.824Z,99.40
2018-12-16T05:18:17.608Z,99.90
2018-12-16T05:20:45.309Z,99.90
2018-12-16T05:23:13.061Z,99.90
2018-12-16T05:25:40.888Z,99.90
2018-12-16T05:28:08.695Z,99.90
2018-12-16T05:30:36.380Z,99.90
2018-12-16T05:33:04.208Z,99.90
2018-12-16T05:35:32.737Z,99.90
2018-12-16T05:38:00.452Z,99.90
2018-12-16T05:40:28.201Z,99.90
2018-12-16T05:42:56.035Z,99.90
2018-12-16T05:45:24.725Z,99.90
2018-12-16T05:47:52.934Z,99.90
2018-12-16T05:50:20.943Z,99.90
2018-12-16T05:52:48.797Z,99.90
2018-12-16T05:55:16.463Z,99.90
2018-12-16T05:57:44.286Z,99.90
2018-12-16T06:00:11.987Z,99.90
2018-12-16T06:02:39.665Z,99.90
2018-12-16T06:05:07.507Z,99.90
2018-12-16T06:07:35.175Z,99.90
2018-12-16T06:10:03.074Z,99.90
2018-12-16T06:12:30.779Z,99.90
2018-12-16T06:14:58.393Z,99.90
2018-12-16T06:17:26.058Z,99.90
2018-12-16T06:19:54.061Z,99.90
2018-12-16T06:22:21.647Z,99.90
2018-12-16T06:24:49.292Z,99.90
2018-12-16T06:27:17.179Z,99.90
2018-12-16T06:29:45.934Z,99.90
2018-12-16T06:32:13.619Z,99.90
2018-12-16T06:34:41.485Z,99.90
2018-12-16T06:37:09.134Z,99.90
2018-12-16T06:39:37.149Z,99.90
2018-12-16T06:42:04.963Z,99.90
2018-12-16T06:44:32.621Z,99.90
2018-12-16T06:47:00.376Z,99.90
2018-12-16T06:49:28.323Z,99.90
2018-12-16T06:51:57.677Z,99.90
2018-12-16T06:54:25.429Z,99.90
2018-12-16T06:56:53.779Z,99.90
2018-12-16T06:59:21.893Z,99.90
2018-12-16T07:01:49.540Z,99.90
2018-12-16T07:04:18.083Z,99.90
2018-12-16T07:06:47.295Z,99.90
2018-12-16T07:09:14.925Z,99.90
2018-12-16T07:11:42.579Z,99.90
2018-12-16T07:14:10.897Z,99.90
2018-12-16T07:16:38.593Z,99.90
2018-12-16T07:19:06.275Z,99.90
2018-12-16T07:21:34.920Z,99.90
2018-12-16T07:24:09.183Z,99.90
2018-12-16T07:26:34.417Z,99.90
2018-12-16T07:29:02.470Z,99.90
2018-12-16T07:31:30.859Z,99.90
2018-12-16T07:33:59.603Z,99.90
2018-12-16T07:36:27.498Z,99.90
2018-12-16T07:38:57.637Z,99.90
2018-12-16T07:41:25.417Z,99.90
2018-12-16T07:43:53.905Z,99.90
2018-12-16T07:46:21.722Z,99.90
2018-12-16T07:48:49.662Z,99.90
2018-12-16T07:51:18.571Z,99.90
2018-12-16T07:53:46.449Z,99.90
2018-12-16T07:56:14.298Z,99.90
2018-12-16T07:58:41.987Z,99.90
2018-12-16T08:01:09.889Z,99.90
2018-12-16T08:03:37.741Z,99.90
2018-12-16T08:06:05.751Z,99.90
2018-12-16T08:08:33.583Z,99.90
2018-12-16T08:11:02.361Z,99.90
2018-12-16T08:13:29.989Z,99.90
2018-12-16T08:15:57.776Z,99.90
2018-12-16T08:18:25.491Z,99.90
2018-12-16T08:20:53.394Z,99.90
2018-12-16T08:23:21.145Z,99.90
2018-12-16T08:25:48.822Z,99.90
2018-12-16T08:28:16.469Z,99.90
2018-12-16T08:30:44.402Z,99.90
2018-12-16T08:33:12.303Z,99.90
2018-12-16T08:35:40.046Z,99.90
2018-12-16T08:38:08.090Z,99.90
2018-12-16T08:40:35.887Z,99.90
2018-12-16T08:43:03.527Z,99.90
2018-12-16T08:45:31.489Z,99.90
2018-12-16T08:47:59.742Z,99.90
2018-12-16T08:50:27.716Z,99.90
2018-12-16T08:52:55.511Z,99.90
2018-12-16T08:55:23.475Z,99.90
2018-12-16T08:57:51.180Z,99.90
2018-12-16T09:00:18.824Z,99.90
2018-12-16T09:02:46.539Z,99.90
2018-12-16T09:05:14.145Z,99.90
2018-12-16T09:07:41.830Z,99.90
2018-12-16T09:10:10.096Z,99.90
2018-12-16T09:12:38.026Z,99.90
2018-12-16T09:15:06.633Z,99.90
2018-12-16T09:17:34.891Z,99.90
2018-12-16T09:20:03.173Z,99.90
2018-12-16T09:22:32.229Z,99.90
2018-12-16T09:25:00.165Z,99.90
2018-12-16T09:27:27.951Z,99.90
2018-12-16T09:29:55.622Z,99.90
2018-12-16T09:32:23.517Z,99.90
2018-12-16T09:34:51.732Z,99.90
2018-12-16T09:37:19.360Z,99.90
2018-12-16T09:39:46.948Z,99.90
2018-12-16T09:42:15.485Z,99.90
2018-12-16T09:44:44.729Z,99.90
2018-12-16T09:47:13.163Z,99.90
2018-12-16T09:49:41.187Z,99.90
2018-12-16T09:52:10.070Z,99.90
2018-12-16T09:54:44.006Z,99.90
2018-12-16T09:57:07.523Z,99.90
2018-12-16T09:59:35.294Z,99.90
2018-12-16T10:02:03.041Z,99.90
2018-12-16T10:04:32.075Z,99.90
2018-12-16T10:07:02.425Z,99.90
2018-12-16T10:09:30.259Z,99.90
2018-12-16T10:11:58.231Z,99.90
2018-12-16T10:14:25.966Z,99.90
2018-12-16T10:16:53.604Z,99.90
2018-12-16T10:19:21.352Z,99.90
2018-12-16T10:21:49.118Z,99.90
2018-12-16T10:24:17.067Z,99.90
2018-12-16T10:26:46.017Z,99.90
2018-12-16T10:29:13.987Z,99.90
2018-12-16T10:31:41.591Z,99.90
2018-12-16T10:34:09.153Z,99.90
2018-12-16T10:36:36.774Z,99.90
2018-12-16T10:39:06.370Z,99.90
2018-12-16T10:41:33.932Z,99.90
2018-12-16T10:44:01.547Z,99.90
2018-12-16T10:46:29.107Z,99.90
2018-12-16T10:48:56.706Z,99.90
2018-12-16T10:51:24.313Z,99.90
2018-12-16T10:53:51.884Z,99.90
2018-12-16T10:56:21.250Z,99.90
2018-12-16T10:58:49.047Z,99.90
2018-12-16T11:01:22.498Z,99.90
2018-12-16T11:03:50.294Z,99.90
2018-12-16T11:06:18.090Z,99.90
2018-12-16T11:08:46.361Z,99.90
2018-12-16T11:11:14.089Z,99.90
2018-12-16T11:13:41.890Z,99.90
2018-12-16T11:16:09.632Z,99.90
2018-12-16T11:18:37.365Z,99.90
2018-12-16T11:21:05.205Z,99.90
2018-12-16T11:23:33.004Z,99.90
2018-12-16T11:26:01.687Z,99.90
2018-12-16T11:28:29.511Z,99.90
2018-12-16T11:30:57.295Z,99.90
2018-12-16T11:33:25.140Z,99.90
2018-12-16T11:35:53.628Z,99.90
2018-12-16T11:38:21.469Z,99.90
2018-12-16T11:40:49.210Z,99.90
2018-12-16T11:43:16.961Z,99.90
2018-12-16T11:45:46.288Z,99.90
2018-12-16T11:48:13.996Z,99.90
2018-12-16T11:50:41.863Z,99.90
2018-12-16T11:53:09.669Z,99.90
2018-12-16T11:55:37.546Z,99.90
2018-12-16T11:58:05.264Z,99.90
2018-12-16T12:00:33.808Z,99.90
2018-12-16T12:03:01.601Z,99.90
2018-12-16T12:05:30.159Z,99.90
2018-12-16T12:07:58.091Z,99.90
2018-12-16T12:10:25.936Z,99.90
2018-12-16T12:12:54.351Z,99.90
2018-12-16T12:15:22.935Z,99.90
2018-12-16T12:17:50.711Z,99.90
2018-12-16T12:20:18.491Z,99.90
2018-12-16T12:22:46.468Z,99.90
2018-12-16T12:25:19.749Z,99.90
2018-12-16T12:27:44.203Z,99.90
2018-12-16T12:30:12.557Z,99.90
2018-12-16T12:32:40.717Z,99.90
2018-12-16T12:35:08.703Z,99.90
2018-12-16T12:37:36.667Z,99.90
2018-12-16T12:40:05.680Z,99.90
2018-12-16T12:42:34.054Z,99.90
2018-12-16T12:45:02.011Z,99.90
2018-12-16T12:47:29.715Z,99.90
2018-12-16T12:49:59.020Z,99.90
2018-12-16T12:52:27.150Z,99.90
2018-12-16T12:54:54.974Z,99.90
2018-12-16T12:57:22.678Z,99.90
2018-12-16T12:59:51.426Z,99.90
2018-12-16T13:02:20.439Z,99.90
2018-12-16T13:04:48.419Z,99.90
2018-12-16T13:07:17.257Z,99.90
2018-12-16T13:09:44.943Z,99.90
2018-12-16T13:12:13.376Z,99.90
2018-12-16T13:14:41.482Z,99.90
2018-12-16T13:17:09.291Z,99.90
2018-12-16T13:19:37.521Z,99.90
2018-12-16T13:22:05.547Z,99.90
2018-12-16T13:24:33.448Z,99.90
2018-12-16T13:27:01.348Z,99.90
2018-12-16T13:29:29.484Z,99.90
2018-12-16T13:31:57.551Z,99.90
2018-12-16T13:34:25.411Z,99.90
2018-12-16T13:36:54.001Z,99.90
2018-12-16T13:39:21.890Z,99.90
2018-12-16T13:41:50.029Z,99.90
2018-12-16T13:44:17.952Z,99.90
2018-12-16T13:46:45.948Z,99.90
2018-12-16T13:49:14.805Z,99.90
2018-12-16T13:51:43.083Z,99.90
2018-12-16T13:54:11.605Z,99.90
2018-12-16T13:56:39.689Z,99.90
2018-12-16T13:59:08.089Z,99.90
2018-12-16T14:01:36.061Z,99.90
2018-12-16T14:04:04.501Z,99.90
2018-12-16T14:06:32.238Z,99.90
2018-12-16T14:09:00.208Z,99.90
2018-12-16T14:11:28.232Z,99.90
2018-12-16T14:14:01.288Z,99.90
2018-12-16T14:16:29.201Z,99.90
2018-12-16T14:18:56.914Z,99.90
2018-12-16T14:21:25.037Z,99.90
2018-12-16T14:23:53.701Z,99.90
2018-12-16T14:26:21.825Z,99.90
2018-12-16T14:28:50.013Z,99.90
2018-12-16T14:31:17.779Z,99.90
2018-12-16T14:33:45.546Z,99.90
2018-12-16T14:36:13.778Z,99.90
2018-12-16T14:38:42.123Z,99.90
2018-12-16T14:41:10.443Z,99.90
2018-12-16T14:43:39.313Z,99.90
2018-12-16T14:46:07.570Z,99.90
2018-12-16T14:48:35.227Z,99.90
2018-12-16T14:51:03.444Z,99.90
2018-12-16T14:53:31.335Z,99.90
2018-12-16T14:56:00.108Z,99.90
2018-12-16T14:58:28.908Z,99.90
2018-12-16T15:00:58.364Z,99.90
2018-12-16T15:03:26.054Z,99.90
2018-12-16T15:05:54.364Z,99.90
2018-12-16T15:08:22.052Z,99.90
2018-12-16T15:10:49.738Z,99.90
2018-12-16T15:13:17.367Z,99.90
2018-12-16T15:15:45.073Z,99.90
2018-12-16T15:18:12.820Z,99.90
2018-12-16T15:20:42.604Z,99.90
2018-12-16T15:23:10.392Z,99.90
2018-12-16T15:25:38.165Z,99.90
2018-12-16T15:28:05.858Z,99.90
2018-12-16T15:30:33.454Z,99.90
2018-12-16T15:33:01.129Z,99.90
2018-12-16T15:35:28.719Z,99.90
2018-12-16T15:37:56.332Z,99.90
2018-12-16T15:40:23.918Z,99.90
2018-12-16T15:42:51.520Z,99.90
2018-12-16T15:45:19.119Z,99.90
2018-12-16T15:47:46.722Z,99.90
2018-12-16T15:50:14.306Z,99.90
2018-12-16T15:52:41.919Z,99.90
2018-12-16T15:55:09.774Z,99.90
2018-12-16T15:57:37.374Z,99.90
2018-12-16T16:00:07.140Z,99.90
2018-12-16T16:02:34.719Z,99.90
2018-12-16T16:05:02.333Z,99.90
2018-12-16T16:07:29.936Z,99.90
2018-12-16T16:09:57.517Z,99.90
2018-12-16T16:12:25.544Z,99.90
2018-12-16T16:14:53.112Z,99.90
2018-12-16T16:17:20.828Z,99.90
2018-12-16T16:19:48.528Z,99.90
2018-12-16T16:22:16.174Z,99.90
2018-12-16T16:24:43.794Z,99.90
2018-12-16T16:27:11.437Z,99.90
2018-12-16T16:29:39.204Z,99.90
2018-12-16T16:32:06.918Z,99.90
2018-12-16T16:34:34.610Z,99.90
2018-12-16T16:37:02.239Z,99.90
2018-12-16T16:39:29.872Z,99.90
2018-12-16T16:41:57.465Z,99.90
2018-12-16T16:44:25.097Z,99.90
2018-12-16T16:46:52.697Z,99.90
2018-12-16T16:49:20.352Z,99.90
2018-12-16T16:51:47.931Z,99.90
2018-12-16T16:54:15.617Z,99.90
2018-12-16T16:56:43.267Z,99.90
2018-12-16T16:59:10.916Z,99.90
2018-12-16T17:01:38.531Z,99.90
2018-12-16T17:04:06.188Z,99.90
2018-12-16T17:06:34.061Z,99.90
2018-12-16T17:09:01.902Z,99.90
2018-12-16T17:11:29.488Z,99.90
2018-12-16T17:13:58.523Z,99.90
2018-12-16T17:16:26.398Z,99.90
2018-12-16T17:18:54.392Z,99.90
2018-12-16T17:21:22.123Z,99.90
2018-12-16T17:23:49.800Z,99.90
2018-12-16T17:26:17.532Z,99.90
2018-12-16T17:28:45.185Z,99.90
2018-12-16T17:31:12.810Z,99.90
2018-12-16T17:33:40.435Z,99.90
2018-12-16T17:36:08.088Z,99.90
2018-12-16T17:38:35.719Z,99.90
2018-12-16T17:41:03.497Z,99.90
2018-12-16T17:43:31.112Z,99.90
2018-12-16T17:45:58.701Z,99.90
2018-12-16T17:48:26.304Z,99.90
2018-12-16T17:50:54.028Z,99.90
2018-12-16T17:53:21.752Z,99.90
2018-12-16T17:55:49.345Z,99.90
2018-12-16T17:58:16.964Z,99.90
2018-12-16T18:00:44.664Z,99.90
2018-12-16T18:03:12.261Z,99.90
2018-12-16T18:05:39.881Z,99.90
2018-12-16T18:08:07.463Z,99.90
2018-12-16T18:10:35.071Z,99.90
2018-12-16T18:13:02.695Z,99.90
2018-12-16T18:15:30.278Z,99.90
2018-12-16T18:17:57.920Z,99.90
2018-12-16T18:20:25.552Z,99.90
2018-12-16T18:22:53.179Z,99.90
2018-12-16T18:25:20.867Z,99.90
2018-12-16T18:27:48.538Z,99.90
2018-12-16T18:30:16.202Z,99.90
2018-12-16T18:32:43.876Z,99.90
2018-12-16T18:35:11.510Z,99.90
2018-12-16T18:37:39.438Z,99.90
2018-12-16T18:40:07.375Z,99.90
2018-12-16T18:42:35.090Z,99.90
2018-12-16T18:45:02.875Z,99.90
2018-12-16T18:47:30.507Z,99.90
2018-12-16T18:49:58.256Z,99.90
2018-12-16T18:52:25.922Z,99.90
2018-12-16T18:54:53.496Z,99.90
2018-12-16T18:57:21.196Z,99.90
2018-12-16T18:59:48.910Z,99.90
2018-12-16T19:02:16.493Z,99.90
2018-12-16T19:04:44.154Z,99.90
2018-12-16T19:07:11.968Z,99.90
2018-12-16T19:09:39.541Z,99.90
2018-12-16T19:12:07.172Z,99.90
2018-12-16T19:14:35.148Z,99.90
2018-12-16T19:17:02.817Z,99.90
2018-12-16T19:19:30.477Z,99.90
2018-12-16T19:21:58.166Z,99.90
2018-12-16T19:24:25.818Z,99.90
2018-12-16T19:26:58.192Z,99.90
2018-12-16T19:29:23.303Z,99.90
2018-12-16T19:31:50.955Z,99.90
2018-12-16T19:34:18.625Z,99.90
2018-12-16T19:36:46.322Z,99.90
2018-12-16T19:39:13.979Z,99.90
2018-12-16T19:41:41.616Z,99.90
2018-12-16T19:44:09.732Z,99.90
2018-12-16T19:46:37.580Z,99.90
2018-12-16T19:49:05.213Z,99.90
2018-12-16T19:51:32.996Z,99.90
2018-12-16T19:54:00.619Z,99.90
2018-12-16T19:56:28.296Z,99.90
2018-12-16T19:58:56.074Z,99.90
2018-12-16T20:01:23.748Z,99.90
2018-12-16T20:04:01.042Z,99.90
2018-12-16T20:06:34.365Z,99.90
2018-12-16T20:09:02.109Z,99.90
2018-12-16T20:11:29.785Z,99.90
2018-12-16T20:13:57.465Z,99.90
2018-12-16T20:16:25.047Z,99.90
2018-12-16T20:18:52.666Z,99.90
2018-12-16T20:21:20.323Z,99.90
2018-12-16T20:23:47.935Z,99.90
2018-12-16T20:26:15.611Z,99.90
2018-12-16T20:28:43.188Z,99.90
2018-12-16T20:31:10.847Z,99.90
2018-12-16T20:33:38.435Z,99.90
2018-12-16T20:36:06.172Z,99.90
2018-12-16T20:38:33.809Z,99.90
2018-12-16T20:41:01.419Z,99.90
2018-12-16T20:43:29.039Z,99.90
2018-12-16T20:45:56.801Z,99.90
2018-12-16T20:48:24.600Z,99.90
2018-12-16T20:50:52.339Z,99.90
2018-12-16T20:53:20.066Z,99.90
2018-12-16T20:55:47.696Z,99.90
2018-12-16T20:58:15.329Z,99.90
2018-12-16T21:00:42.999Z,99.90
2018-12-16T21:03:10.690Z,99.90
2018-12-16T21:05:38.625Z,99.90
2018-12-16T21:08:06.580Z,99.90
2018-12-16T21:10:34.234Z,99.90
2018-12-16T21:13:07.607Z,99.90
2018-12-16T21:15:40.792Z,99.90
2018-12-16T21:18:14.187Z,99.90
2018-12-16T21:20:41.877Z,99.90
2018-12-16T21:23:09.558Z,99.90
2018-12-16T21:25:37.336Z,99.90
2018-12-16T21:28:04.983Z,99.90
2018-12-16T21:30:32.716Z,99.90
2018-12-16T21:33:00.380Z,99.90
2018-12-16T21:35:28.211Z,99.90
2018-12-16T21:37:55.810Z,99.90
2018-12-16T21:40:23.458Z,99.90
2018-12-16T21:42:51.081Z,99.90
2018-12-16T21:45:18.722Z,99.90
2018-12-16T21:47:46.521Z,99.90
2018-12-16T21:50:14.234Z,99.90
2018-12-16T21:52:41.832Z,99.90
2018-12-16T21:55:09.449Z,99.90
2018-12-16T21:57:37.069Z,99.90
2018-12-16T22:00:07.592Z,99.90
2018-12-16T22:02:35.258Z,99.90
2018-12-16T22:05:02.892Z,99.90
2018-12-16T22:07:30.476Z,99.90
2018-12-16T22:09:58.160Z,99.90
2018-12-16T22:12:25.784Z,99.90
2018-12-16T22:14:53.559Z,99.90
2018-12-16T22:17:21.187Z,99.90
2018-12-16T22:19:48.900Z,99.90
2018-12-16T22:22:16.678Z,99.90
2018-12-16T22:24:44.358Z,99.90
2018-12-16T22:27:11.945Z,99.90
2018-12-16T22:29:39.625Z,99.90
2018-12-16T22:32:07.212Z,99.90
2018-12-16T22:34:35.058Z,99.90
2018-12-16T22:37:02.682Z,99.90
2018-12-16T22:39:30.275Z,99.90
2018-12-16T22:41:57.947Z,99.90
2018-12-16T22:44:25.603Z,99.90
2018-12-16T22:46:53.297Z,99.90
2018-12-16T22:49:20.899Z,99.90
2018-12-16T22:51:48.582Z,99.90
2018-12-16T22:54:16.204Z,99.90
2018-12-16T22:56:43.920Z,99.90
2018-12-16T22:59:11.534Z,99.90
2018-12-16T23:01:39.271Z,99.90
2018-12-16T23:04:10.891Z,99.90
2018-12-16T23:06:38.507Z,99.90
2018-12-16T23:09:07.106Z,99.90
2018-12-16T23:11:34.884Z,99.90
2018-12-16T23:14:02.652Z,99.90
2018-12-16T23:16:30.397Z,99.90
2018-12-16T23:18:58.083Z,99.90
2018-12-16T23:21:25.712Z,99.90
2018-12-16T23:23:53.326Z,99.90
2018-12-16T23:26:21.254Z,99.90
2018-12-16T23:28:48.871Z,99.90
2018-12-16T23:31:16.592Z,99.90
2018-12-16T23:33:44.307Z,99.90
2018-12-16T23:36:11.944Z,99.90
2018-12-16T23:38:39.621Z,99.90
2018-12-16T23:41:07.219Z,99.90
2018-12-16T23:43:34.830Z,99.90
2018-12-16T23:46:02.439Z,99.90
2018-12-16T23:48:30.031Z,99.90
2018-12-16T23:50:57.701Z,99.90
2018-12-16T23:53:25.283Z,99.90
2018-12-16T23:55:53.122Z,99.90
2018-12-16T23:58:20.787Z,99.90
